createdAt,value
2018-01-11T00:00:55.013Z,8.1
2018-01-11T00:01:54.875Z,8.05
2018-01-11T00:02:54.886Z,7.98
2018-01-11T00:03:55.172Z,8
2018-01-11T00:04:55.168Z,7.88
2018-01-11T00:05:54.939Z,7.88
2018-01-11T00:06:55.200Z,7.9
2018-01-11T00:07:55.220Z,7.77
2018-01-11T00:08:55.239Z,7.77
2018-01-11T00:09:54.999Z,7.88
2018-01-11T00:10:55.275Z,7.77
2018-01-11T00:11:55.031Z,7.76
2018-01-11T00:12:55.300Z,7.72
2018-01-11T00:13:55.062Z,7.69
2018-01-11T00:14:55.334Z,7.77
2018-01-11T00:15:55.397Z,7.69
2018-01-11T00:16:55.362Z,7.79
2018-01-11T00:17:54.872Z,7.7
2018-01-11T00:18:55.397Z,7.75
2018-01-11T00:19:55.157Z,7.79
2018-01-11T00:20:55.426Z,7.75
2018-01-11T00:21:55.196Z,7.77
2018-01-11T00:22:55.456Z,7.7
2018-01-11T00:23:54.968Z,7.66
2018-01-11T00:24:55.487Z,7.5
2018-01-11T00:25:55.519Z,7.54
2018-01-11T00:26:55.276Z,7.58
2018-01-11T00:27:55.287Z,7.57
2018-01-11T00:28:55.554Z,7.51
2018-01-11T00:29:55.063Z,7.47
2018-01-11T00:30:55.383Z,7.42
2018-01-11T00:31:55.620Z,7.38
2018-01-11T00:32:55.365Z,7.42
2018-01-11T00:33:55.377Z,7.39
2018-01-11T00:34:55.396Z,7.43
2018-01-11T00:35:55.660Z,7.48
2018-01-11T00:36:55.679Z,7.45
2018-01-11T00:37:55.443Z,7.48
2018-01-11T00:38:55.712Z,7.57
2018-01-11T00:39:55.727Z,7.56
2018-01-11T00:40:55.240Z,7.57
2018-01-11T00:41:55.506Z,7.57
2018-01-11T00:42:55.801Z,7.53
2018-01-11T00:43:55.548Z,7.51
2018-01-11T00:44:55.806Z,7.56
2018-01-11T00:45:55.616Z,7.56
2018-01-11T00:46:55.585Z,7.6
2018-01-11T00:47:55.622Z,7.61
2018-01-11T00:48:55.619Z,7.63
2018-01-11T00:49:55.630Z,7.58
2018-01-11T00:50:55.647Z,7.61
2018-01-11T00:51:55.915Z,7.66
2018-01-11T00:52:55.676Z,7.58
2018-01-11T00:53:55.694Z,7.54
2018-01-11T00:54:55.968Z,7.54
2018-01-11T00:55:55.729Z,7.47
2018-01-11T00:56:55.740Z,7.43
2018-01-11T00:57:55.759Z,7.45
2018-01-11T00:58:56.027Z,7.56
2018-01-11T00:59:55.539Z,7.42
2018-01-11T01:00:56.143Z,7.53
2018-01-11T01:01:55.824Z,7.54
2018-01-11T01:02:55.840Z,7.5
2018-01-11T01:03:56.101Z,7.56
2018-01-11T01:04:56.120Z,7.61
2018-01-11T01:05:55.899Z,7.5
2018-01-11T01:06:56.155Z,7.51
2018-01-11T01:07:55.914Z,7.6
2018-01-11T01:08:55.930Z,7.48
2018-01-11T01:09:56.205Z,7.54
2018-01-11T01:10:55.709Z,7.56
2018-01-11T01:11:55.976Z,7.57
2018-01-11T01:12:56.243Z,7.58
2018-01-11T01:13:56.010Z,7.57
2018-01-11T01:14:56.023Z,7.69
2018-01-11T01:15:56.345Z,7.67
2018-01-11T01:16:56.310Z,7.73
2018-01-11T01:17:56.083Z,7.69
2018-01-11T01:18:56.337Z,7.51
2018-01-11T01:19:56.357Z,7.54
2018-01-11T01:20:56.371Z,7.56
2018-01-11T01:21:56.391Z,7.47
2018-01-11T01:22:55.898Z,7.56
2018-01-11T01:23:55.912Z,7.56
2018-01-11T01:24:56.180Z,7.61
2018-01-11T01:25:56.448Z,7.57
2018-01-11T01:26:56.472Z,7.45
2018-01-11T01:27:56.250Z,7.4
2018-01-11T01:28:56.246Z,7.31
2018-01-11T01:29:56.514Z,7.32
2018-01-11T01:30:56.578Z,7.35
2018-01-11T01:31:56.037Z,7.33
2018-01-11T01:32:56.562Z,7.39
2018-01-11T01:33:56.323Z,7.43
2018-01-11T01:34:56.340Z,7.32
2018-01-11T01:35:56.385Z,7.31
2018-01-11T01:36:56.368Z,7.21
2018-01-11T01:37:56.383Z,7.2
2018-01-11T01:38:56.406Z,7.2
2018-01-11T01:39:56.670Z,7.11
2018-01-11T01:40:57.431Z,7.15
2018-01-11T01:41:56.443Z,7.14
2018-01-11T01:42:56.713Z,7.11
2018-01-11T01:43:56.478Z,7.13
2018-01-11T01:44:56.747Z,7.13
2018-01-11T01:45:56.610Z,7.13
2018-01-11T01:46:56.777Z,7.14
2018-01-11T01:47:56.589Z,7.07
2018-01-11T01:48:56.559Z,7.13
2018-01-11T01:49:56.828Z,7.11
2018-01-11T01:50:56.589Z,7.14
2018-01-11T01:51:56.853Z,7.29
2018-01-11T01:52:56.616Z,7.23
2018-01-11T01:53:56.892Z,7.07
2018-01-11T01:54:56.902Z,6.89
2018-01-11T01:55:56.663Z,6.88
2018-01-11T01:56:56.683Z,6.79
2018-01-11T01:57:56.961Z,6.87
2018-01-11T01:58:56.973Z,6.95
2018-01-11T01:59:56.977Z,7.1
2018-01-11T02:00:56.542Z,7.06
2018-01-11T02:01:56.507Z,7.11
2018-01-11T02:02:57.028Z,7.17
2018-01-11T02:03:57.049Z,7.07
2018-01-11T02:04:57.061Z,7.14
2018-01-11T02:05:57.079Z,7.15
2018-01-11T02:06:56.837Z,7.11
2018-01-11T02:07:57.102Z,7.02
2018-01-11T02:08:57.122Z,6.93
2018-01-11T02:09:56.880Z,6.89
2018-01-11T02:10:57.162Z,6.93
2018-01-11T02:11:56.923Z,6.95
2018-01-11T02:12:56.927Z,6.95
2018-01-11T02:13:57.202Z,6.88
2018-01-11T02:14:57.216Z,6.82
2018-01-11T02:15:57.227Z,6.78
2018-01-11T02:16:57.245Z,6.88
2018-01-11T02:17:57.254Z,6.87
2018-01-11T02:18:57.325Z,6.88
2018-01-11T02:19:57.290Z,6.79
2018-01-11T02:20:57.325Z,6.7
2018-01-11T02:21:57.328Z,6.81
2018-01-11T02:22:57.093Z,6.77
2018-01-11T02:23:57.108Z,6.74
2018-01-11T02:24:57.118Z,6.72
2018-01-11T02:25:57.132Z,6.7
2018-01-11T02:26:57.143Z,6.78
2018-01-11T02:27:57.422Z,6.77
2018-01-11T02:28:57.173Z,6.78
2018-01-11T02:29:57.193Z,6.79
2018-01-11T02:30:57.469Z,6.79
2018-01-11T02:31:57.524Z,6.85
2018-01-11T02:32:57.510Z,6.88
2018-01-11T02:33:57.306Z,6.88
2018-01-11T02:34:57.519Z,6.88
2018-01-11T02:35:57.285Z,6.87
2018-01-11T02:36:57.301Z,6.84
2018-01-11T02:37:57.567Z,6.78
2018-01-11T02:38:57.591Z,6.77
2018-01-11T02:39:57.601Z,6.88
2018-01-11T02:40:57.372Z,6.93
2018-01-11T02:41:57.374Z,6.95
2018-01-11T02:42:57.640Z,7
2018-01-11T02:44:16.878Z,6.95
2018-01-11T02:45:29.525Z,6.96
2018-01-11T02:45:57.440Z,7.02
2018-01-11T02:46:57.699Z,7.07
2018-01-11T02:47:57.460Z,7.03
2018-01-11T02:48:59.836Z,7
2018-01-11T02:49:57.528Z,7.11
2018-01-11T02:50:57.258Z,7.06
2018-01-11T02:51:57.532Z,6.95
2018-01-11T02:52:57.794Z,6.78
2018-01-11T02:53:57.555Z,6.82
2018-01-11T02:54:57.572Z,6.87
2018-01-11T02:55:57.596Z,6.88
2018-01-11T02:56:57.600Z,6.87
2018-01-11T02:57:57.869Z,6.96
2018-01-11T02:58:57.380Z,6.88
2018-01-11T02:59:57.902Z,6.97
2018-01-11T03:00:57.922Z,7.03
2018-01-11T03:01:57.426Z,7.03
2018-01-11T03:02:57.440Z,6.99
2018-01-11T03:03:58.015Z,7.03
2018-01-11T03:04:57.974Z,7.07
2018-01-11T03:05:57.737Z,7.06
2018-01-11T03:06:57.757Z,6.97
2018-01-11T03:07:57.772Z,6.99
2018-01-11T03:08:58.036Z,7.02
2018-01-11T03:09:58.050Z,7.11
2018-01-11T03:10:58.077Z,7.06
2018-01-11T03:11:58.128Z,7.11
2018-01-11T03:12:58.099Z,7.21
2018-01-11T03:13:57.861Z,7.15
2018-01-11T03:14:57.881Z,7.07
2018-01-11T03:15:58.148Z,7.11
2018-01-11T03:16:58.156Z,7.13
2018-01-11T03:17:58.171Z,7.14
2018-01-11T03:18:58.239Z,7.28
2018-01-11T03:19:58.211Z,7.21
2018-01-11T03:20:58.221Z,7.2
2018-01-11T03:21:57.983Z,7.28
2018-01-11T03:22:57.994Z,7.18
2018-01-11T03:23:58.027Z,7.17
2018-01-11T03:24:57.778Z,7.07
2018-01-11T03:25:58.042Z,7.17
2018-01-11T03:26:57.804Z,7.13
2018-01-11T03:27:58.072Z,7.13
2018-01-11T03:28:58.090Z,7.23
2018-01-11T03:29:58.104Z,7.14
2018-01-11T03:30:58.130Z,7.2
2018-01-11T03:31:58.391Z,7.11
2018-01-11T03:32:58.401Z,7.1
2018-01-11T03:33:58.467Z,7.07
2018-01-11T03:34:58.179Z,7.06
2018-01-11T03:35:58.470Z,6.97
2018-01-11T03:36:58.464Z,6.95
2018-01-11T03:37:58.484Z,7.11
2018-01-11T03:38:58.242Z,6.99
2018-01-11T03:39:58.511Z,7.07
2018-01-11T03:40:58.524Z,7.2
2018-01-11T03:41:58.538Z,7.21
2018-01-11T03:42:58.558Z,7.17
2018-01-11T03:43:58.573Z,7.06
2018-01-11T03:44:58.588Z,7.11
2018-01-11T03:45:58.347Z,7.05
2018-01-11T03:46:58.617Z,7.05
2018-01-11T03:47:58.383Z,7.02
2018-01-11T03:48:58.699Z,7.07
2018-01-11T03:49:58.414Z,6.97
2018-01-11T03:50:58.683Z,7.11
2018-01-11T03:51:58.693Z,7.1
2018-01-11T03:52:58.204Z,7.23
2018-01-11T03:53:58.726Z,7.15
2018-01-11T03:54:58.744Z,7.13
2018-01-11T03:55:58.758Z,7.05
2018-01-11T03:56:58.786Z,6.99
2018-01-11T03:57:58.788Z,6.99
2018-01-11T03:58:58.805Z,6.95
2018-01-11T03:59:58.566Z,7.13
2018-01-11T04:00:58.833Z,6.93
2018-01-11T04:01:58.342Z,7
2018-01-11T04:02:58.864Z,6.95
2018-01-11T04:03:58.937Z,6.87
2018-01-11T04:04:58.894Z,6.81
2018-01-11T04:05:58.424Z,6.88
2018-01-11T04:06:58.923Z,6.99
2018-01-11T04:07:58.951Z,6.82
2018-01-11T04:08:58.703Z,6.75
2018-01-11T04:09:58.969Z,6.75
2018-01-11T04:10:58.733Z,6.74
2018-01-11T04:11:58.745Z,6.69
2018-01-11T04:12:59.014Z,6.64
2018-01-11T04:13:59.045Z,6.63
2018-01-11T04:14:58.542Z,6.69
2018-01-11T04:15:59.061Z,6.77
2018-01-11T04:16:58.570Z,6.74
2018-01-11T04:17:59.090Z,6.79
2018-01-11T04:18:59.198Z,6.72
2018-01-11T04:19:59.121Z,6.77
2018-01-11T04:20:59.135Z,6.69
2018-01-11T04:21:58.945Z,6.64
2018-01-11T04:22:58.663Z,6.69
2018-01-11T04:23:59.181Z,6.52
2018-01-11T04:24:59.215Z,6.59
2018-01-11T04:25:59.216Z,6.51
2018-01-11T04:26:58.983Z,6.41
2018-01-11T04:27:59.243Z,6.27
2018-01-11T04:28:59.263Z,6.35
2018-01-11T04:29:59.281Z,6.22
2018-01-11T04:30:59.046Z,6.24
2018-01-11T04:31:59.055Z,6.33
2018-01-11T04:32:59.065Z,6.38
2018-01-11T04:33:59.385Z,6.44
2018-01-11T04:34:59.096Z,6.52
2018-01-11T04:35:59.368Z,6.35
2018-01-11T04:36:59.400Z,6.44
2018-01-11T04:37:59.396Z,6.46
2018-01-11T04:38:59.417Z,6.39
2018-01-11T04:39:59.426Z,6.45
2018-01-11T04:40:59.193Z,6.56
2018-01-11T04:41:59.204Z,6.49
2018-01-11T04:42:58.968Z,6.51
2018-01-11T04:43:59.490Z,6.63
2018-01-11T04:44:59.506Z,6.52
2018-01-11T04:45:59.521Z,6.41
2018-01-11T04:46:59.535Z,6.33
2018-01-11T04:47:59.585Z,6.28
2018-01-11T04:48:59.633Z,6.36
2018-01-11T04:49:59.319Z,6.05
2018-01-11T04:50:59.581Z,6.01
2018-01-11T04:51:59.597Z,6.11
2018-01-11T04:52:59.365Z,5.9
2018-01-11T04:53:59.376Z,5.91
2018-01-11T04:54:59.641Z,5.76
2018-01-11T04:55:59.408Z,5.83
2018-01-11T04:56:59.675Z,5.87
2018-01-11T04:57:59.451Z,5.75
2018-01-11T04:58:59.539Z,5.8
2018-01-11T04:59:59.740Z,5.93
2018-01-11T05:00:59.501Z,5.86
2018-01-11T05:01:59.507Z,5.9
2018-01-11T05:02:59.523Z,5.98
2018-01-11T05:03:59.790Z,6.01
2018-01-11T05:04:59.553Z,6.07
2018-01-11T05:05:59.568Z,6.02
2018-01-11T05:07:00.123Z,6.05
2018-01-11T05:07:59.850Z,6.01
2018-01-11T05:08:59.612Z,5.97
2018-01-11T05:09:59.632Z,5.89
2018-01-11T05:10:59.896Z,5.79
2018-01-11T05:11:59.926Z,5.71
2018-01-11T05:12:59.933Z,5.83
2018-01-11T05:13:59.941Z,5.89
2018-01-11T05:14:59.707Z,5.94
2018-01-11T05:15:59.721Z,5.93
2018-01-11T05:16:59.742Z,5.94
2018-01-11T05:17:59.499Z,5.9
2018-01-11T05:19:00.028Z,5.83
2018-01-11T05:20:00.045Z,5.84
2018-01-11T05:21:00.050Z,5.89
2018-01-11T05:21:59.859Z,5.76
2018-01-11T05:22:59.822Z,5.71
2018-01-11T05:23:59.837Z,5.79
2018-01-11T05:24:59.851Z,5.68
2018-01-11T05:25:59.867Z,5.68
2018-01-11T05:27:00.135Z,5.89
2018-01-11T05:27:59.644Z,5.86
2018-01-11T05:29:00.161Z,5.84
2018-01-11T05:30:00.177Z,5.8
2018-01-11T05:31:00.193Z,5.82
2018-01-11T05:31:59.959Z,5.73
2018-01-11T05:32:59.970Z,5.79
2018-01-11T05:33:59.987Z,5.87
2018-01-11T05:35:00.252Z,5.9
2018-01-11T05:36:00.045Z,5.98
2018-01-11T05:37:00.326Z,5.99
2018-01-11T05:38:00.044Z,6.04
2018-01-11T05:38:59.806Z,6.11
2018-01-11T05:39:59.822Z,6.05
2018-01-11T05:41:00.094Z,5.98
2018-01-11T05:42:00.102Z,5.87
2018-01-11T05:43:00.117Z,6.05
2018-01-11T05:44:00.133Z,6.09
2018-01-11T05:45:00.405Z,6.05
2018-01-11T05:46:00.161Z,6.04
2018-01-11T05:47:00.187Z,6.16
2018-01-11T05:47:59.937Z,6.08
2018-01-11T05:49:00.458Z,6.12
2018-01-11T05:49:59.964Z,6.07
2018-01-11T05:51:00.230Z,6.05
2018-01-11T05:52:00.300Z,6.09
2018-01-11T05:53:00.513Z,6.14
2018-01-11T05:54:00.285Z,6.07
2018-01-11T05:55:00.544Z,6.07
2018-01-11T05:56:00.555Z,6.08
2018-01-11T05:57:00.423Z,6.02
2018-01-11T05:58:00.335Z,5.94
2018-01-11T05:59:00.607Z,5.87
2018-01-11T06:00:00.621Z,5.86
2018-01-11T06:01:00.385Z,5.73
2018-01-11T06:02:00.649Z,5.76
2018-01-11T06:03:00.415Z,5.73
2018-01-11T06:04:00.681Z,5.76
2018-01-11T06:05:00.449Z,5.76
2018-01-11T06:06:00.453Z,5.65
2018-01-11T06:07:00.266Z,5.66
2018-01-11T06:08:00.482Z,5.68
2018-01-11T06:09:00.770Z,5.64
2018-01-11T06:10:00.513Z,5.66
2018-01-11T06:11:00.776Z,5.79
2018-01-11T06:12:00.547Z,5.75
2018-01-11T06:13:00.552Z,5.71
2018-01-11T06:14:00.822Z,5.76
2018-01-11T06:15:00.332Z,5.59
2018-01-11T06:16:00.596Z,5.61
2018-01-11T06:17:00.868Z,5.68
2018-01-11T06:18:00.625Z,5.75
2018-01-11T06:19:00.892Z,5.86
2018-01-11T06:20:00.905Z,5.8
2018-01-11T06:21:00.419Z,5.87
2018-01-11T06:22:00.988Z,5.76
2018-01-11T06:23:00.953Z,5.89
2018-01-11T06:24:00.722Z,5.97
2018-01-11T06:25:00.737Z,5.99
2018-01-11T06:26:00.746Z,6.02
2018-01-11T06:27:01.113Z,6.12
2018-01-11T06:28:00.778Z,6.16
2018-01-11T06:29:00.807Z,6.05
2018-01-11T06:30:00.559Z,6.19
2018-01-11T06:31:00.823Z,6.24
2018-01-11T06:32:00.842Z,6.2
2018-01-11T06:33:01.109Z,6.26
2018-01-11T06:34:00.880Z,6.33
2018-01-11T06:35:01.145Z,6.38
2018-01-11T06:36:00.904Z,6.3
2018-01-11T06:37:01.220Z,6.28
2018-01-11T06:38:00.938Z,6.31
2018-01-11T06:39:00.954Z,6.35
2018-01-11T06:40:00.958Z,6.38
2018-01-11T06:41:00.976Z,6.38
2018-01-11T06:42:01.247Z,6.36
2018-01-11T06:43:01.006Z,6.41
2018-01-11T06:44:01.276Z,6.45
2018-01-11T06:45:00.784Z,6.45
2018-01-11T06:46:01.056Z,6.41
2018-01-11T06:47:00.818Z,6.42
2018-01-11T06:48:01.357Z,6.51
2018-01-11T06:49:01.097Z,6.57
2018-01-11T06:50:01.116Z,6.64
2018-01-11T06:51:01.384Z,6.74
2018-01-11T06:52:01.194Z,6.66
2018-01-11T06:53:01.427Z,6.57
2018-01-11T06:54:01.175Z,6.57
2018-01-11T06:55:01.443Z,6.42
2018-01-11T06:56:01.219Z,6.42
2018-01-11T06:57:01.219Z,6.49
2018-01-11T06:58:01.547Z,6.38
2018-01-11T06:59:01.253Z,6.48
2018-01-11T07:00:01.544Z,6.48
2018-01-11T07:01:01.544Z,6.51
2018-01-11T07:02:01.560Z,6.49
2018-01-11T07:03:01.315Z,6.49
2018-01-11T07:04:01.327Z,6.6
2018-01-11T07:05:01.604Z,6.74
2018-01-11T07:06:01.606Z,6.75
2018-01-11T07:07:01.681Z,6.69
2018-01-11T07:08:01.389Z,6.78
2018-01-11T07:09:01.655Z,6.78
2018-01-11T07:10:01.421Z,6.82
2018-01-11T07:11:01.437Z,6.82
2018-01-11T07:12:01.456Z,6.82
2018-01-11T07:13:01.471Z,6.64
2018-01-11T07:14:01.231Z,6.63
2018-01-11T07:15:01.749Z,6.64
2018-01-11T07:16:01.767Z,6.52
2018-01-11T07:17:01.777Z,6.64
2018-01-11T07:18:01.793Z,6.49
2018-01-11T07:19:01.555Z,6.57
2018-01-11T07:20:01.827Z,6.52
2018-01-11T07:21:01.591Z,6.48
2018-01-11T07:22:01.653Z,6.51
2018-01-11T07:23:01.933Z,6.57
2018-01-11T07:24:01.631Z,6.59
2018-01-11T07:25:01.896Z,6.56
2018-01-11T07:26:01.961Z,6.67
2018-01-11T07:27:01.692Z,6.75
2018-01-11T07:28:01.946Z,6.67
2018-01-11T07:29:01.969Z,6.69
2018-01-11T07:30:01.728Z,6.81
2018-01-11T07:31:01.996Z,6.75
2018-01-11T07:32:01.764Z,6.75
2018-01-11T07:33:02.024Z,6.77
2018-01-11T07:34:02.039Z,6.85
2018-01-11T07:35:02.060Z,6.93
2018-01-11T07:36:02.071Z,6.87
2018-01-11T07:37:01.632Z,6.99
2018-01-11T07:38:02.105Z,6.85
2018-01-11T07:39:01.872Z,6.95
2018-01-11T07:40:01.878Z,6.92
2018-01-11T07:41:01.897Z,6.89
2018-01-11T07:42:01.912Z,6.88
2018-01-11T07:43:02.178Z,6.88
2018-01-11T07:44:01.687Z,6.77
2018-01-11T07:45:01.956Z,6.77
2018-01-11T07:46:02.225Z,6.79
2018-01-11T07:47:02.240Z,6.88
2018-01-11T07:48:02.261Z,6.88
2018-01-11T07:49:02.018Z,6.85
2018-01-11T07:50:02.294Z,7.02
2018-01-11T07:51:02.063Z,7.15
2018-01-11T07:52:02.115Z,7.1
2018-01-11T07:53:02.332Z,7.17
2018-01-11T07:54:02.343Z,7.38
2018-01-11T07:55:01.857Z,7.23
2018-01-11T07:56:02.131Z,7.32
2018-01-11T07:57:02.400Z,7.38
2018-01-11T07:58:02.414Z,7.36
2018-01-11T07:59:02.178Z,7.36
2018-01-11T08:00:02.195Z,7.42
2018-01-11T08:01:02.482Z,7.39
2018-01-11T08:02:02.223Z,7.45
2018-01-11T08:03:02.234Z,7.45
2018-01-11T08:04:02.504Z,7.5
2018-01-11T08:05:02.013Z,7.53
2018-01-11T08:06:02.533Z,7.39
2018-01-11T08:07:02.599Z,7.56
2018-01-11T08:08:02.563Z,7.54
2018-01-11T08:09:02.577Z,7.58
2018-01-11T08:10:02.337Z,7.63
2018-01-11T08:11:02.609Z,7.67
2018-01-11T08:12:02.121Z,7.69
2018-01-11T08:13:02.407Z,7.75
2018-01-11T08:14:02.654Z,7.77
2018-01-11T08:15:02.428Z,7.8
2018-01-11T08:16:02.440Z,7.75
2018-01-11T08:17:02.705Z,7.73
2018-01-11T08:18:02.726Z,7.66
2018-01-11T08:19:02.738Z,7.66
2018-01-11T08:20:02.754Z,7.56
2018-01-11T08:21:02.270Z,7.57
2018-01-11T08:22:02.834Z,7.57
2018-01-11T08:23:02.549Z,7.51
2018-01-11T08:24:02.819Z,7.69
2018-01-11T08:25:02.587Z,7.69
2018-01-11T08:26:02.851Z,7.76
2018-01-11T08:27:02.611Z,7.7
2018-01-11T08:28:02.626Z,7.76
2018-01-11T08:29:02.904Z,7.75
2018-01-11T08:30:02.914Z,7.82
2018-01-11T08:31:02.690Z,7.7
2018-01-11T08:32:02.743Z,7.79
2018-01-11T08:33:02.706Z,7.87
2018-01-11T08:34:03.055Z,7.82
2018-01-11T08:35:02.761Z,7.72
2018-01-11T08:36:03.010Z,7.73
2018-01-11T08:37:02.818Z,7.66
2018-01-11T08:38:03.037Z,7.79
2018-01-11T08:39:02.802Z,7.73
2018-01-11T08:40:03.073Z,7.77
2018-01-11T08:41:03.096Z,7.69
2018-01-11T08:42:02.901Z,7.6
2018-01-11T08:43:03.119Z,7.57
2018-01-11T08:44:02.891Z,7.5
2018-01-11T08:45:02.644Z,7.56
2018-01-11T08:46:02.912Z,7.47
2018-01-11T08:47:03.179Z,7.42
2018-01-11T08:48:02.947Z,7.48
2018-01-11T08:49:02.963Z,7.38
2018-01-11T08:50:02.977Z,7.32
2018-01-11T08:51:03.244Z,7.35
2018-01-11T08:52:03.055Z,7.45
2018-01-11T08:53:03.041Z,7.48
2018-01-11T08:54:03.035Z,7.4
2018-01-11T08:55:03.304Z,7.42
2018-01-11T08:56:02.815Z,7.54
2018-01-11T08:57:03.082Z,7.45
2018-01-11T08:58:03.351Z,7.47
2018-01-11T08:59:03.362Z,7.38
2018-01-11T09:00:03.375Z,7.45
2018-01-11T09:01:03.409Z,7.47
2018-01-11T09:02:03.162Z,7.54
2018-01-11T09:03:03.447Z,7.53
2018-01-11T09:04:03.451Z,7.38
2018-01-11T09:05:03.226Z,7.45
2018-01-11T09:06:03.481Z,7.4
2018-01-11T09:07:03.296Z,7.57
2018-01-11T09:08:03.255Z,7.56
2018-01-11T09:09:03.273Z,7.7
2018-01-11T09:10:03.289Z,7.63
2018-01-11T09:11:03.561Z,7.57
2018-01-11T09:12:03.613Z,7.57
2018-01-11T09:13:03.586Z,7.61
2018-01-11T09:14:03.354Z,7.67
2018-01-11T09:15:03.634Z,7.82
2018-01-11T09:16:03.386Z,7.85
2018-01-11T09:17:03.496Z,7.82
2018-01-11T09:18:03.684Z,7.63
2018-01-11T09:19:03.682Z,7.6
2018-01-11T09:20:03.448Z,7.5
2018-01-11T09:21:03.708Z,7.28
2018-01-11T09:22:03.828Z,7.35
2018-01-11T09:23:03.748Z,7.4
2018-01-11T09:24:03.511Z,7.45
2018-01-11T09:25:03.776Z,7.53
2018-01-11T09:26:03.544Z,7.51
2018-01-11T09:27:03.806Z,7.57
2018-01-11T09:28:03.828Z,7.54
2018-01-11T09:29:03.590Z,7.4
2018-01-11T09:30:03.603Z,7.39
2018-01-11T09:31:03.619Z,7.47
2018-01-11T09:32:03.886Z,7.56
2018-01-11T09:33:03.650Z,7.57
2018-01-11T09:34:03.923Z,7.53
2018-01-11T09:35:03.686Z,7.53
2018-01-11T09:36:03.951Z,7.56
2018-01-11T09:37:03.753Z,7.6
2018-01-11T09:38:03.729Z,7.66
2018-01-11T09:39:04.002Z,7.6
2018-01-11T09:40:04.031Z,7.69
2018-01-11T09:41:03.625Z,7.87
2018-01-11T09:42:03.584Z,7.9
2018-01-11T09:43:03.814Z,7.97
2018-01-11T09:44:04.085Z,7.94
2018-01-11T09:45:03.848Z,8.03
2018-01-11T09:46:03.868Z,8.01
2018-01-11T09:47:03.865Z,8.1
2018-01-11T09:48:03.887Z,8.15
2018-01-11T09:49:04.173Z,8.1
2018-01-11T09:50:04.174Z,8.31
2018-01-11T09:51:04.041Z,8.28
2018-01-11T09:52:04.210Z,8.28
2018-01-11T09:53:04.231Z,8.34
2018-01-11T09:54:03.989Z,8.31
2018-01-11T09:55:04.005Z,8.34
2018-01-11T09:56:04.077Z,8.45
2018-01-11T09:57:04.035Z,8.38
2018-01-11T09:58:04.303Z,8.42
2018-01-11T09:59:04.067Z,8.38
2018-01-11T10:00:04.352Z,8.31
2018-01-11T10:01:04.152Z,8.37
2018-01-11T10:02:04.373Z,8.42
2018-01-11T10:03:04.132Z,8.38
2018-01-11T10:04:04.409Z,8.56
2018-01-11T10:05:04.420Z,8.58
2018-01-11T10:06:04.489Z,8.45
2018-01-11T10:07:04.451Z,8.42
2018-01-11T10:08:04.468Z,8.53
2018-01-11T10:09:04.533Z,8.46
2018-01-11T10:10:04.507Z,8.6
2018-01-11T10:11:04.317Z,8.58
2018-01-11T10:12:04.536Z,8.63
2018-01-11T10:13:04.553Z,8.64
2018-01-11T10:14:04.321Z,8.71
2018-01-11T10:15:04.588Z,8.61
2018-01-11T10:16:04.338Z,8.61
2018-01-11T10:17:04.381Z,8.52
2018-01-11T10:18:04.635Z,8.51
2018-01-11T10:19:04.402Z,8.3
2018-01-11T10:20:04.667Z,8.27
2018-01-11T10:21:04.447Z,8.26
2018-01-11T10:22:04.705Z,8.1
2018-01-11T10:23:04.718Z,8.2
2018-01-11T10:24:04.483Z,8.3
2018-01-11T10:25:04.788Z,8.2
2018-01-11T10:26:04.819Z,8.26
2018-01-11T10:27:04.526Z,8.28
2018-01-11T10:28:04.553Z,8.31
2018-01-11T10:29:04.828Z,8.26
2018-01-11T10:30:04.847Z,8.28
2018-01-11T10:31:04.846Z,8.34
2018-01-11T10:32:04.874Z,8.37
2018-01-11T10:33:04.634Z,8.38
2018-01-11T10:34:04.898Z,8.49
2018-01-11T10:35:04.410Z,8.6
2018-01-11T10:36:04.684Z,8.7
2018-01-11T10:37:04.949Z,8.81
2018-01-11T10:38:04.714Z,8.91
2018-01-11T10:39:04.734Z,8.91
2018-01-11T10:40:04.744Z,9.04
2018-01-11T10:41:05.071Z,9.04
2018-01-11T10:42:05.031Z,8.99
2018-01-11T10:43:05.047Z,9.11
2018-01-11T10:44:04.812Z,9.04
2018-01-11T10:45:04.830Z,9.08
2018-01-11T10:46:04.844Z,9
2018-01-11T10:47:04.871Z,9.19
2018-01-11T10:48:04.878Z,9.21
2018-01-11T10:49:04.899Z,9.29
2018-01-11T10:50:05.163Z,9.36
2018-01-11T10:51:05.177Z,9.39
2018-01-11T10:52:04.942Z,9.34
2018-01-11T10:53:04.707Z,9.39
2018-01-11T10:54:05.236Z,9.31
2018-01-11T10:55:04.994Z,9.18
2018-01-11T10:56:05.118Z,9.16
2018-01-11T10:57:04.778Z,9.16
2018-01-11T10:58:05.298Z,9.25
2018-01-11T10:59:05.067Z,9.4
2018-01-11T11:00:04.829Z,9.4
2018-01-11T11:01:05.099Z,9.36
2018-01-11T11:02:05.194Z,9.4
2018-01-11T11:03:05.391Z,9.47
2018-01-11T11:04:05.413Z,9.47
2018-01-11T11:05:05.169Z,9.43
2018-01-11T11:06:05.438Z,9.36
2018-01-11T11:07:05.459Z,9.5
2018-01-11T11:08:05.276Z,9.44
2018-01-11T11:09:05.240Z,9.37
2018-01-11T11:10:05.017Z,9.4
2018-01-11T11:11:05.344Z,9.41
2018-01-11T11:12:05.284Z,9.51
2018-01-11T11:13:05.555Z,9.5
2018-01-11T11:14:05.578Z,9.4
2018-01-11T11:15:05.340Z,9.34
2018-01-11T11:16:05.710Z,9.39
2018-01-11T11:17:05.687Z,9.37
2018-01-11T11:18:05.389Z,9.39
2018-01-11T11:19:05.666Z,9.44
2018-01-11T11:20:05.710Z,9.47
2018-01-11T11:21:05.243Z,9.44
2018-01-11T11:22:05.207Z,9.34
2018-01-11T11:23:05.495Z,9.36
2018-01-11T11:24:05.508Z,9.39
2018-01-11T11:25:05.256Z,9.4
2018-01-11T11:26:05.842Z,9.34
2018-01-11T11:27:05.800Z,9.32
2018-01-11T11:28:05.816Z,9.19
2018-01-11T11:29:05.834Z,9.18
2018-01-11T11:30:05.346Z,8.95
2018-01-11T11:31:05.615Z,8.97
2018-01-11T11:32:05.893Z,9
2018-01-11T11:33:05.906Z,8.99
2018-01-11T11:34:05.925Z,8.97
2018-01-11T11:35:05.689Z,8.95
2018-01-11T11:36:05.710Z,8.95
2018-01-11T11:37:05.525Z,8.95
2018-01-11T11:38:05.735Z,9
2018-01-11T11:39:05.752Z,8.7
2018-01-11T11:40:06.019Z,8.78
2018-01-11T11:41:06.037Z,8.92
2018-01-11T11:42:05.597Z,8.99
2018-01-11T11:43:06.071Z,9.18
2018-01-11T11:44:05.833Z,9.29
2018-01-11T11:45:06.093Z,9.1
2018-01-11T11:46:06.127Z,9.08
2018-01-11T11:47:06.195Z,9.02
2018-01-11T11:48:05.898Z,9.1
2018-01-11T11:49:05.930Z,9
2018-01-11T11:50:06.184Z,9
2018-01-11T11:51:06.207Z,9.19
2018-01-11T11:52:06.022Z,9.16
2018-01-11T11:53:06.245Z,9.1
2018-01-11T11:54:06.006Z,8.94
2018-01-11T11:55:06.279Z,8.84
2018-01-11T11:56:06.298Z,8.92
2018-01-11T11:57:06.108Z,8.91
2018-01-11T11:58:06.072Z,9.1
2018-01-11T11:59:06.332Z,9.03
2018-01-11T12:00:06.103Z,9.08
2018-01-11T12:01:06.401Z,9.1
2018-01-11T12:02:06.396Z,9.04
2018-01-11T12:03:06.411Z,9.13
2018-01-11T12:04:06.433Z,8.81
2018-01-11T12:05:06.196Z,8.67
2018-01-11T12:06:06.211Z,8.74
2018-01-11T12:07:06.485Z,8.87
2018-01-11T12:08:06.346Z,8.81
2018-01-11T12:09:06.512Z,8.84
2018-01-11T12:10:06.536Z,8.85
2018-01-11T12:11:06.571Z,8.79
2018-01-11T12:12:06.372Z,8.81
2018-01-11T12:13:06.078Z,8.69
2018-01-11T12:14:06.096Z,8.73
2018-01-11T12:15:06.626Z,8.67
2018-01-11T12:16:06.629Z,8.42
2018-01-11T12:17:06.394Z,8.55
2018-01-11T12:18:06.660Z,8.49
2018-01-11T12:19:06.176Z,8.49
2018-01-11T12:20:06.696Z,8.38
2018-01-11T12:21:06.729Z,8.58
2018-01-11T12:22:06.829Z,8.48
2018-01-11T12:23:06.759Z,8.63
2018-01-11T12:24:06.517Z,8.7
2018-01-11T12:25:06.785Z,8.79
2018-01-11T12:26:06.813Z,8.76
2018-01-11T12:27:06.668Z,8.73
2018-01-11T12:28:06.333Z,8.67
2018-01-11T12:29:06.634Z,8.66
2018-01-11T12:30:06.621Z,8.87
2018-01-11T12:31:06.632Z,8.71
2018-01-11T12:32:06.405Z,8.76
2018-01-11T12:33:06.936Z,8.67
2018-01-11T12:34:06.940Z,8.7
2018-01-11T12:35:06.701Z,8.73
2018-01-11T12:36:06.463Z,8.73
2018-01-11T12:37:06.734Z,8.81
2018-01-11T12:38:07.012Z,8.81
2018-01-11T12:39:07.019Z,8.89
2018-01-11T12:40:06.787Z,9.1
2018-01-11T12:41:06.916Z,9.03
2018-01-11T12:42:07.121Z,9.03
2018-01-11T12:43:07.110Z,8.99
2018-01-11T12:44:06.600Z,8.91
2018-01-11T12:45:07.127Z,8.92
2018-01-11T12:46:07.136Z,8.92
2018-01-11T12:47:07.155Z,8.78
2018-01-11T12:48:06.922Z,8.78
2018-01-11T12:49:07.190Z,8.66
2018-01-11T12:50:07.204Z,8.84
2018-01-11T12:51:06.972Z,8.76
2018-01-11T12:52:07.242Z,8.78
2018-01-11T12:53:07.009Z,8.85
2018-01-11T12:54:07.022Z,9.02
2018-01-11T12:55:07.041Z,9.1
2018-01-11T12:56:07.311Z,9.11
2018-01-11T12:57:07.227Z,9.21
2018-01-11T12:58:07.090Z,9.22
2018-01-11T12:59:07.105Z,9.18
2018-01-11T13:00:07.132Z,9.19
2018-01-11T13:01:07.139Z,9.14
2018-01-11T13:02:07.190Z,9.25
2018-01-11T13:03:07.427Z,9.18
2018-01-11T13:04:06.941Z,9.22
2018-01-11T13:05:07.478Z,9.04
2018-01-11T13:06:07.486Z,8.99
2018-01-11T13:07:07.504Z,8.84
2018-01-11T13:08:07.267Z,8.69
2018-01-11T13:09:07.528Z,8.85
2018-01-11T13:10:07.552Z,8.84
2018-01-11T13:11:07.610Z,8.82
2018-01-11T13:12:07.324Z,8.94
2018-01-11T13:13:07.651Z,9.08
2018-01-11T13:14:07.612Z,8.97
2018-01-11T13:15:07.382Z,9.04
2018-01-11T13:16:07.644Z,9
2018-01-11T13:17:07.408Z,8.99
2018-01-11T13:18:07.677Z,9.02
2018-01-11T13:19:07.442Z,9.13
2018-01-11T13:20:07.207Z,9.13
2018-01-11T13:21:07.741Z,8.99
2018-01-11T13:22:07.498Z,9.11